Time;durP1;ratioP1;P1;durP2;ratioP2;P2;SDS_P1;SDS_P2;PMS_P1;PMS_P2;Temp;Humidity;BMP_temperature;BMP_pressure;BME280_temperature;BME280_humidity;BME280_pressure;Samples;Min_cycle;Max_cycle;Signal;HPM_P1;HPM_P2
2021/01/09 00:02:03;;;;;;;31.27;14.83;;;;;;;-0.15;79.24;99895.37;1714003;82;21132;-80
2021/01/09 00:04:31;;;;;;;36.28;19.73;;;;;;;-0.17;80.15;99890.62;1718279;83;21198;-81
2021/01/09 00:06:59;;;;;;;37.03;18.95;;;;;;;-0.20;79.73;99884.16;1711258;83;21665;-81
2021/01/09 00:09:28;;;;;;;35.08;17.95;;;;;;;-0.18;79.99;99885.00;1706320;83;21171;-81
2021/01/09 00:11:55;;;;;;;33.48;17.00;;;;;;;-0.17;80.23;99891.92;1721672;83;21186;-80
2021/01/09 00:14:23;;;;;;;37.90;19.20;;;;;;;-0.17;80.32;99893.21;1707868;81;21132;-83
2021/01/09 00:16:51;;;;;;;47.33;23.20;;;;;;;-0.18;80.02;99891.06;1669607;80;21391;-84
2021/01/09 00:19:18;;;;;;;39.13;18.98;;;;;;;-0.18;80.37;99891.47;1664239;80;21111;-86
2021/01/09 00:28:05;;;;;;;42.70;19.25;;;;;;;-0.16;80.65;99903.98;1699838;80;74449;-85
2021/01/09 00:30:34;;;;;;;41.20;20.75;;;;;;;-0.16;81.34;99898.81;1698971;83;21364;-84
2021/01/09 00:36:12;;;;;;;43.57;21.70;;;;;;;-0.13;81.31;99901.42;1725848;78;80848;-79
2021/01/09 00:38:40;;;;;;;44.60;21.95;;;;;;;-0.15;81.37;99897.97;1747503;80;20996;-84
2021/01/09 00:41:08;;;;;;;41.20;20.75;;;;;;;-0.16;81.26;99901.39;1744681;80;21134;-85
2021/01/09 00:43:36;;;;;;;39.18;20.05;;;;;;;-0.15;81.55;99900.55;1747363;82;21154;-86
2021/01/09 00:46:06;;;;;;;36.50;18.77;;;;;;;-0.15;81.67;99901.41;1744370;80;21080;-85
2021/01/09 00:48:34;;;;;;;39.55;19.82;;;;;;;-0.16;81.83;99902.28;1738534;80;21131;-83
2021/01/09 00:51:03;;;;;;;43.42;20.97;;;;;;;-0.15;82.04;99900.55;1704647;81;21139;-82
2021/01/09 00:56:41;;;;;;;43.95;22.13;;;;;;;-0.16;82.18;99892.34;1698779;80;75121;-86
2021/01/09 00:59:09;;;;;;;41.42;21.35;;;;;;;-0.16;82.26;99892.34;1684028;82;21106;-86
2021/01/09 01:01:36;;;;;;;50.50;21.65;;;;;;;-0.16;82.33;99891.05;1683750;85;21135;-84
2021/01/09 01:04:05;;;;;;;45.65;23.45;;;;;;;-0.16;82.46;99889.75;1682153;85;21178;-84
2021/01/09 01:06:35;;;;;;;36.33;20.02;;;;;;;-0.14;82.68;99886.73;1680000;85;21641;-86
2021/01/09 01:09:04;;;;;;;44.20;22.80;;;;;;;-0.12;82.71;99890.20;1679628;85;21395;-87
2021/01/09 01:11:32;;;;;;;45.80;22.77;;;;;;;-0.13;82.56;99885.90;1679973;85;21162;-81
2021/01/09 01:14:02;;;;;;;41.45;22.10;;;;;;;-0.15;82.61;99882.00;1679626;85;21223;-81
2021/01/09 01:16:30;;;;;;;43.20;21.73;;;;;;;-0.16;82.53;99878.10;1680095;85;21263;-81
2021/01/09 01:18:58;;;;;;;32.05;16.90;;;;;;;-0.16;82.77;99873.81;1680616;85;21150;-84
2021/01/09 01:21:25;;;;;;;41.05;21.70;;;;;;;-0.16;82.91;99876.81;1681134;85;21308;-85
2021/01/09 01:23:53;;;;;;;47.27;22.25;;;;;;;-0.15;83.11;99883.73;1682147;85;21680;-86
2021/01/09 01:26:20;;;;;;;42.13;20.92;;;;;;;-0.16;83.05;99883.28;1664884;86;21623;-84
2021/01/09 01:28:48;;;;;;;44.00;21.35;;;;;;;-0.17;83.16;99880.27;1683015;84;21175;-85
2021/01/09 01:31:16;;;;;;;48.70;23.80;;;;;;;-0.17;83.22;99878.98;1688660;84;21139;-85
2021/01/09 01:33:44;;;;;;;41.42;22.48;;;;;;;-0.17;83.53;99873.80;1736078;81;21644;-85
2021/01/09 01:36:13;;;;;;;45.05;21.93;;;;;;;-0.16;83.48;99871.23;1736404;79;21171;-85
2021/01/09 01:38:41;;;;;;;44.63;23.05;;;;;;;-0.15;83.37;99869.49;1734769;81;21182;-85
2021/01/09 01:44:25;;;;;;;40.70;22.30;;;;;;;-0.19;83.45;99867.75;1770648;78;21064;-89
2021/01/09 01:53:09;;;;;;;43.67;21.50;;;;;;;-0.18;83.93;99865.58;1699122;81;21132;-82
2021/01/09 01:55:36;;;;;;;49.55;25.92;;;;;;;-0.19;83.92;99865.16;1695691;83;21391;-82
2021/01/09 01:58:04;;;;;;;42.13;21.90;;;;;;;-0.16;83.87;99866.05;1678538;84;21051;-83
2021/01/09 02:00:32;;;;;;;44.13;21.55;;;;;;;-0.17;84.01;99860.42;1704422;83;21808;-82
2021/01/09 02:03:01;;;;;;;40.80;19.62;;;;;;;-0.17;84.14;99863.45;1704242;83;21099;-81
2021/01/09 02:05:39;;;;;;;44.88;23.10;;;;;;;-0.17;84.44;99861.72;1704528;83;21186;-82
2021/01/09 02:08:12;;;;;;;46.80;25.68;;;;;;;-0.15;84.34;99857.84;1703954;83;21399;-83
2021/01/09 02:10:42;;;;;;;44.60;22.85;;;;;;;-0.14;84.53;99851.80;1703075;83;21105;-80
2021/01/09 02:13:29;;;;;;;49.63;25.45;;;;;;;-0.11;84.95;99858.30;1674650;84;21564;-81
2021/01/09 02:15:57;;;;;;;53.68;25.97;;;;;;;-0.11;84.83;99853.12;1651116;85;21567;-80
2021/01/09 02:18:26;;;;;;;50.98;27.45;;;;;;;-0.13;84.91;99856.13;1674143;85;21145;-81
2021/01/09 02:20:58;;;;;;;49.60;26.68;;;;;;;-0.08;85.03;99850.52;1674670;84;21162;-80
2021/01/09 02:23:30;;;;;;;40.33;20.55;;;;;;;-0.07;85.09;99852.23;1651118;85;21099;-81
2021/01/09 02:25:58;;;;;;;49.90;22.75;;;;;;;-0.08;85.11;99844.91;1651066;85;21175;-81
2021/01/09 02:28:26;;;;;;;48.35;24.05;;;;;;;-0.06;85.18;99848.80;1651119;84;21264;-82
2021/01/09 02:30:56;;;;;;;50.73;24.27;;;;;;;-0.08;84.97;99842.76;1676247;84;21158;-81
2021/01/09 02:33:25;;;;;;;54.23;27.32;;;;;;;-0.09;85.00;99843.59;1676077;84;21161;-81
2021/01/09 02:35:54;;;;;;;37.78;19.40;;;;;;;-0.07;85.10;99847.06;1675896;84;21146;-84
2021/01/09 02:41:39;;;;;;;47.78;25.32;;;;;;;-0.12;85.23;99843.61;1644730;82;75994;-83
2021/01/09 02:44:11;;;;;;;52.25;27.67;;;;;;;-0.15;85.41;99835.84;1658875;83;21127;-83
2021/01/09 02:46:39;;;;;;;54.65;27.15;;;;;;;-0.11;85.66;99837.59;1655751;86;21189;-84
2021/01/09 02:49:07;;;;;;;42.00;21.33;;;;;;;-0.10;85.39;99839.30;1655411;85;21150;-83
2021/01/09 02:51:35;;;;;;;44.55;23.65;;;;;;;-0.12;85.15;99840.58;1655354;83;21327;-82
2021/01/09 02:54:05;;;;;;;39.60;19.98;;;;;;;-0.18;85.14;99835.41;1642404;83;21070;-87
2021/01/09 02:56:34;;;;;;;43.55;22.13;;;;;;;-0.22;85.29;99830.65;1657272;81;74543;-87
2021/01/09 02:59:21;;;;;;;49.03;25.75;;;;;;;-0.21;85.36;99830.21;1692188;82;74779;-80
2021/01/09 03:01:49;;;;;;;52.50;25.80;;;;;;;-0.22;85.51;99828.06;1695717;84;21839;-80
2021/01/09 03:04:17;;;;;;;53.38;24.40;;;;;;;-0.22;85.65;99833.23;1707202;84;21385;-80
2021/01/09 03:06:45;;;;;;;52.45;26.25;;;;;;;-0.23;85.72;99835.81;1707199;84;21172;-78
2021/01/09 03:09:13;;;;;;;48.78;25.40;;;;;;;-0.23;85.77;99839.29;1707087;84;21105;-79
2021/01/09 03:11:41;;;;;;;55.35;28.50;;;;;;;-0.19;85.72;99843.16;1707446;83;21200;-79
2021/01/09 03:14:09;;;;;;;43.70;23.02;;;;;;;-0.20;86.06;99838.86;1708365;83;21143;-83
2021/01/09 03:16:38;;;;;;;46.83;23.77;;;;;;;-0.18;86.09;99844.88;1710086;84;21696;-84
2021/01/09 03:22:18;;;;;;;35.63;18.80;;;;;;;-0.16;86.12;99842.76;1735750;82;21125;-84
2021/01/09 03:24:46;;;;;;;41.90;22.32;;;;;;;-0.12;86.05;99845.75;1735864;82;21179;-84
2021/01/09 03:27:13;;;;;;;47.15;23.52;;;;;;;-0.10;86.32;99842.75;1735731;82;21320;-79
2021/01/09 03:29:41;;;;;;;47.10;24.80;;;;;;;-0.09;86.30;99836.72;1730454;82;21461;-80
2021/01/09 03:32:09;;;;;;;52.58;26.80;;;;;;;-0.07;86.38;99839.30;1727773;82;21581;-79
2021/01/09 03:34:37;;;;;;;48.23;24.90;;;;;;;-0.06;86.50;99839.75;1728628;83;21221;-79
2021/01/09 03:37:05;;;;;;;52.03;26.65;;;;;;;-0.03;86.53;99838.44;1728872;83;21119;-77
2021/01/09 03:39:34;;;;;;;54.30;27.10;;;;;;;0.01;86.43;99838.89;1725954;83;21171;-77
2021/01/09 03:42:04;;;;;;;47.27;23.90;;;;;;;0.01;86.65;99845.36;1727286;83;21667;-81
2021/01/09 03:44:35;;;;;;;51.68;25.97;;;;;;;0.00;86.59;99843.65;1728519;83;21221;-79
2021/01/09 03:47:03;;;;;;;61.43;30.27;;;;;;;0.03;86.65;99838.45;1729373;83;21112;-80
2021/01/09 03:49:31;;;;;;;47.15;23.45;;;;;;;0.06;86.58;99842.34;1729465;83;21134;-80
2021/01/09 03:51:58;;;;;;;53.10;28.10;;;;;;;0.07;86.19;99841.90;1729665;83;21166;-79
2021/01/09 03:54:30;;;;;;;48.00;23.70;;;;;;;0.05;86.16;99841.92;1729616;83;21221;-80
2021/01/09 03:56:58;;;;;;;46.73;23.42;;;;;;;0.04;86.00;99845.35;1729378;83;21207;-81
2021/01/09 03:59:26;;;;;;;46.58;23.92;;;;;;;0.03;86.17;99844.94;1729791;81;21158;-82
2021/01/09 04:01:55;;;;;;;42.20;23.02;;;;;;;0.04;85.86;99849.23;1729716;81;21107;-81
2021/01/09 04:04:23;;;;;;;41.35;21.15;;;;;;;0.01;85.83;99847.95;1729994;81;21186;-83
2021/01/09 04:06:51;;;;;;;45.90;22.22;;;;;;;0.04;86.21;99852.27;1729892;81;21513;-82
2021/01/09 04:09:21;;;;;;;45.25;22.62;;;;;;;0.03;86.27;99848.81;1730214;81;21099;-83
2021/01/09 04:11:49;;;;;;;48.17;25.10;;;;;;;0.00;85.72;99844.94;1729994;81;21111;-83
2021/01/09 04:14:18;;;;;;;44.98;23.38;;;;;;;0.00;85.92;99852.70;1729775;83;21186;-81
2021/01/09 04:16:48;;;;;;;50.50;25.27;;;;;;;0.00;86.08;99850.12;1729667;81;21189;-82
2021/01/09 04:19:16;;;;;;;45.98;23.32;;;;;;;-0.04;85.92;99860.03;1729931;83;21398;-81
2021/01/09 04:21:46;;;;;;;56.25;27.35;;;;;;;-0.07;86.18;99854.83;1729610;82;21070;-81
2021/01/09 04:24:15;;;;;;;54.85;26.57;;;;;;;-0.07;86.22;99860.00;1729965;81;21155;-81
2021/01/09 04:26:43;;;;;;;51.08;27.95;;;;;;;-0.06;86.14;99857.86;1729594;83;21060;-81
2021/01/09 04:29:12;;;;;;;51.42;26.20;;;;;;;-0.08;86.21;99860.44;1729518;83;21047;-82
2021/01/09 04:31:40;;;;;;;54.20;27.15;;;;;;;-0.11;86.16;99859.59;1729756;81;22489;-81
2021/01/09 04:34:09;;;;;;;48.70;24.40;;;;;;;-0.12;86.35;99866.91;1729748;83;21091;-83
2021/01/09 04:36:37;;;;;;;55.67;29.02;;;;;;;-0.10;86.28;99864.75;1729821;83;21205;-82
2021/01/09 04:39:05;;;;;;;50.55;25.35;;;;;;;-0.11;86.33;99861.73;1729732;81;21151;-80
2021/01/09 04:41:35;;;;;;;39.80;20.50;;;;;;;-0.12;86.11;99865.61;1729963;83;21113;-82
2021/01/09 04:44:04;;;;;;;38.75;20.37;;;;;;;-0.13;86.49;99871.22;1730041;83;21387;-81
2021/01/09 04:46:50;;;;;;;37.53;18.90;;;;;;;-0.11;86.71;99869.94;1729477;83;21150;-81
2021/01/09 04:49:20;;;;;;;59.23;28.60;;;;;;;-0.08;86.77;99868.64;1729410;83;21115;-83
2021/01/09 04:51:50;;;;;;;50.43;26.33;;;;;;;-0.06;86.85;99872.96;1729789;83;21131;-81
2021/01/09 04:54:21;;;;;;;48.10;24.15;;;;;;;-0.03;87.14;99872.09;1729708;83;21174;-83
2021/01/09 04:56:54;;;;;;;58.90;26.40;;;;;;;0.00;87.11;99872.13;1730097;81;22397;-83
2021/01/09 04:59:25;;;;;;;62.83;31.25;;;;;;;0.01;86.88;99872.98;1729972;81;21202;-82
2021/01/09 05:01:57;;;;;;;54.25;28.12;;;;;;;0.03;86.89;99882.48;1729869;81;21074;-81
2021/01/09 05:04:26;;;;;;;53.23;25.90;;;;;;;0.05;86.63;99878.16;1730136;81;21115;-84
2021/01/09 05:06:55;;;;;;;43.87;23.52;;;;;;;0.07;86.66;99877.74;1730121;81;21179;-82
2021/01/09 05:09:27;;;;;;;56.40;26.50;;;;;;;0.06;86.44;99877.29;1730129;81;21186;-83
2021/01/09 05:11:56;;;;;;;47.62;23.70;;;;;;;0.05;86.21;99878.16;1730015;81;21064;-85
2021/01/09 05:14:23;;;;;;;37.17;19.52;;;;;;;0.06;86.23;99882.91;1701831;82;21063;-85
2021/01/09 05:16:52;;;;;;;46.77;23.67;;;;;;;0.09;86.53;99885.49;1725451;81;21110;-81
2021/01/09 05:19:21;;;;;;;54.58;27.22;;;;;;;0.11;86.73;99883.33;1730066;81;21127;-81
2021/01/09 05:21:49;;;;;;;52.80;27.50;;;;;;;0.13;86.65;99891.97;1672993;82;21679;-80
2021/01/09 05:24:17;;;;;;;54.55;26.62;;;;;;;0.15;86.71;99891.98;1727648;83;21194;-80
2021/01/09 05:26:46;;;;;;;57.40;27.95;;;;;;;0.13;86.71;99884.20;1725503;83;21178;-78
2021/01/09 05:29:16;;;;;;;59.40;28.98;;;;;;;0.15;86.79;99887.66;1722114;83;21194;-78
2021/01/09 05:31:43;;;;;;;56.65;28.77;;;;;;;0.19;86.74;99890.70;1723572;83;21166;-76
2021/01/09 05:34:11;;;;;;;51.70;25.65;;;;;;;0.23;86.80;99894.58;1725408;83;21540;-78
2021/01/09 05:36:39;;;;;;;54.42;27.25;;;;;;;0.24;86.55;99901.50;1721259;81;21589;-79
2021/01/09 05:39:07;;;;;;;55.15;26.87;;;;;;;0.22;86.56;99898.05;1721975;83;21170;-79
2021/01/09 05:41:40;;;;;;;55.80;27.80;;;;;;;0.23;86.62;99898.45;1720715;83;21147;-80
2021/01/09 05:44:09;;;;;;;55.67;29.02;;;;;;;0.22;86.17;99909.69;1630871;86;21188;-80
2021/01/09 05:46:41;;;;;;;56.80;26.52;;;;;;;0.20;86.28;99909.24;1673221;85;21422;-78
2021/01/09 05:49:10;;;;;;;53.73;27.70;;;;;;;0.20;86.33;99911.83;1673734;85;21178;-78
2021/01/09 05:51:39;;;;;;;45.85;24.80;;;;;;;0.19;86.41;99916.59;1680303;84;21151;-77
2021/01/09 05:54:08;;;;;;;50.28;23.95;;;;;;;0.18;86.52;99917.87;1679371;85;21191;-76
2021/01/09 05:59:26;;;;;;;60.00;26.77;;;;;;;0.19;86.84;99915.30;1887153;76;21994;-74
2021/01/09 06:01:55;;;;;;;51.18;26.33;;;;;;;0.16;87.20;99919.19;1849437;77;21178;-75
2021/01/09 06:04:28;;;;;;;52.05;26.65;;;;;;;0.15;86.76;99917.87;1800007;78;21506;-76
2021/01/09 06:07:01;;;;;;;50.63;25.92;;;;;;;0.14;87.12;99920.05;1800416;78;21162;-76
2021/01/09 06:09:34;;;;;;;53.42;24.95;;;;;;;0.15;87.34;99929.09;1820367;78;21231;-74
2021/01/09 06:12:05;;;;;;;;;;;;;;;0.13;87.29;99928.23;1781538;77;21124;-83
2021/01/09 06:14:34;;;;;;;52.75;27.35;;;;;;;0.13;87.27;99929.52;1826038;75;20230;-84
2021/01/09 06:17:03;;;;;;;56.73;27.93;;;;;;;0.12;87.30;99935.58;1739911;76;76058;-84
2021/01/09 06:19:31;;;;;;;61.13;28.67;;;;;;;0.12;87.64;99938.16;1746252;81;20986;-84
2021/01/09 06:22:03;;;;;;;52.05;26.97;;;;;;;0.13;87.98;99943.77;1715426;83;28212;-85
2021/01/09 06:24:30;;;;;;;55.58;27.85;;;;;;;0.14;87.98;99944.22;1696885;83;21123;-82
2021/01/09 06:27:04;;;;;;;57.73;28.10;;;;;;;0.14;88.25;99936.89;1749938;80;21163;-82
2021/01/09 06:29:31;;;;;;;52.33;26.70;;;;;;;0.15;88.18;99947.22;1757142;81;21774;-82
2021/01/09 06:32:05;;;;;;;55.20;28.67;;;;;;;0.15;88.43;99945.93;1756621;81;21159;-81
2021/01/09 06:34:33;;;;;;;56.42;28.07;;;;;;;0.16;88.62;99946.38;1756795;81;21077;-84
2021/01/09 06:37:03;;;;;;;56.83;28.20;;;;;;;0.17;88.69;99951.98;1756549;81;21084;-83
2021/01/09 06:39:37;;;;;;;61.53;28.75;;;;;;;0.17;88.72;99955.87;1756422;81;21116;-82
2021/01/09 06:42:07;;;;;;;57.00;29.07;;;;;;;0.16;88.60;99952.86;1756742;81;21372;-82
2021/01/09 06:44:34;;;;;;;57.85;30.72;;;;;;;0.18;88.75;99956.72;1756400;81;21135;-82
2021/01/09 06:47:03;;;;;;;56.10;28.27;;;;;;;0.20;88.96;99954.56;1756588;81;21649;-82
2021/01/09 06:49:31;;;;;;;54.50;27.85;;;;;;;0.20;89.07;99959.74;1756594;81;21096;-81
2021/01/09 06:52:02;;;;;;;59.60;28.95;;;;;;;0.19;88.89;99964.50;1756418;81;21127;-82
2021/01/09 06:54:47;;;;;;;57.58;28.32;;;;;;;0.22;88.80;99970.56;1756349;81;21519;-79
2021/01/09 06:57:20;;;;;;;53.02;26.65;;;;;;;0.22;88.63;99965.38;1747618;81;21028;-84
2021/01/09 06:59:51;;;;;;;50.40;25.32;;;;;;;0.16;88.47;99970.98;1756805;81;21156;-84
2021/01/09 07:05:43;;;;;;;57.70;24.43;;;;;;;0.15;88.43;99970.53;1739538;79;75040;-87
2021/01/09 07:08:26;;;;;;;51.53;25.00;;;;;;;0.17;88.25;99966.66;1797240;79;21070;-90
2021/01/09 07:10:59;;;;;;;52.13;24.70;;;;;;;0.20;88.37;99967.52;1798205;79;21236;-91
2021/01/09 07:16:43;;;;;;;50.17;25.02;;;;;;;0.22;88.27;99976.59;1754359;81;21207;-80
2021/01/09 07:19:11;;;;;;;57.62;28.40;;;;;;;0.26;88.55;99975.75;1706271;81;21162;-80
2021/01/09 07:21:38;;;;;;;55.38;28.90;;;;;;;0.32;88.67;99976.17;1731073;81;21481;-81
2021/01/09 07:24:08;;;;;;;53.40;27.27;;;;;;;0.34;88.45;99978.34;1756102;81;21162;-80
2021/01/09 07:26:36;;;;;;;56.60;29.23;;;;;;;0.37;88.18;99978.37;1750890;80;21142;-81
2021/01/09 07:29:04;;;;;;;51.73;26.90;;;;;;;0.37;88.16;99980.96;1787126;80;21142;-78
2021/01/09 07:34:11;;;;;;;45.47;23.30;;;;;;;0.52;87.82;99981.41;1813055;77;22728;-81
2021/01/09 07:36:39;;;;;;;43.33;21.80;;;;;;;0.50;87.67;99979.24;1749970;80;21064;-81
2021/01/09 07:39:07;;;;;;;47.15;25.40;;;;;;;0.53;87.66;99981.83;1784847;79;21362;-79
2021/01/09 07:41:38;;;;;;;46.37;22.05;;;;;;;0.53;87.24;99985.30;1780222;80;21086;-81
2021/01/09 07:44:18;;;;;;;48.28;23.95;;;;;;;0.55;87.29;99981.40;1754235;82;21119;-81
2021/01/09 07:47:05;;;;;;;45.73;23.32;;;;;;;0.59;87.13;99980.11;1748559;82;21108;-78
2021/01/09 07:49:34;;;;;;;51.35;23.98;;;;;;;0.63;87.13;99979.26;1753058;82;21060;-79
2021/01/09 07:52:07;;;;;;;55.80;28.23;;;;;;;0.63;86.71;99983.14;1753892;82;21374;-80
2021/01/09 07:54:43;;;;;;;51.65;27.70;;;;;;;0.63;86.50;99984.44;1747412;81;21149;-80
2021/01/09 07:57:23;;;;;;;58.60;27.55;;;;;;;0.65;86.53;99984.89;1720938;83;21162;-81
2021/01/09 08:00:02;;;;;;;51.25;25.43;;;;;;;0.68;86.31;99987.03;1727502;82;21107;-80
2021/01/09 08:02:38;;;;;;;44.77;21.62;;;;;;;0.73;85.85;99992.22;1746273;81;21202;-81
2021/01/09 08:05:10;;;;;;;51.92;26.17;;;;;;;0.74;86.00;99995.27;1738235;82;21389;-80
2021/01/09 08:07:40;;;;;;;45.80;23.47;;;;;;;0.74;85.86;99987.05;1737636;82;21160;-80
2021/01/09 08:10:24;;;;;;;49.58;25.68;;;;;;;0.78;85.97;99989.20;1747939;80;21107;-77
2021/01/09 08:12:55;;;;;;;53.20;27.02;;;;;;;0.83;85.75;99993.97;1746297;81;21192;-82
2021/01/09 08:15:23;;;;;;;45.08;22.65;;;;;;;0.86;85.69;99991.38;1751379;81;21139;-82
2021/01/09 08:17:51;;;;;;;54.35;27.00;;;;;;;0.88;85.44;99993.53;1749857;82;21158;-81
2021/01/09 08:20:20;;;;;;;52.30;25.75;;;;;;;0.90;85.40;99993.11;1752350;82;21115;-81
2021/01/09 08:22:52;;;;;;;45.43;22.42;;;;;;;0.94;84.90;99993.52;1752131;81;21040;-82
2021/01/09 08:25:21;;;;;;;40.98;21.30;;;;;;;0.97;84.70;99997.42;1752641;82;21163;-82
2021/01/09 08:27:51;;;;;;;41.83;20.57;;;;;;;1.00;84.56;99988.77;1737338;80;21230;-79
2021/01/09 08:30:23;;;;;;;51.53;25.55;;;;;;;1.01;84.54;99995.67;1737806;80;21402;-78
2021/01/09 08:33:16;;;;;;;50.83;25.52;;;;;;;0.97;83.85;99994.83;1736707;80;21141;-79
2021/01/09 08:35:50;;;;;;;56.35;27.50;;;;;;;0.97;84.14;99994.83;1728968;82;21132;-77
2021/01/09 08:38:20;;;;;;;48.30;24.67;;;;;;;1.02;84.47;99990.50;1730451;82;21141;-77
2021/01/09 08:43:07;;;;;;;45.30;22.57;;;;;;;1.13;84.01;99977.94;1741587;79;22106;-78
2021/01/09 08:45:49;;;;;;;45.63;24.92;;;;;;;1.11;84.42;99968.89;1705153;83;21167;-79
2021/01/09 08:48:27;;;;;;;50.92;25.10;;;;;;;1.15;84.25;99976.22;1714630;83;21212;-79
2021/01/09 08:51:14;;;;;;;47.83;23.83;;;;;;;1.19;83.99;99972.32;1714052;83;21179;-80
2021/01/09 08:54:03;;;;;;;50.30;25.50;;;;;;;1.24;83.97;99977.09;1713414;83;21147;-78
2021/01/09 08:56:31;;;;;;;50.75;24.90;;;;;;;1.27;84.02;99964.55;1696151;83;21194;-78
2021/01/09 09:01:53;;;;;;;58.93;28.90;;;;;;;1.39;83.72;99971.00;1833122;77;22784;-78
2021/01/09 09:04:21;;;;;;;49.70;25.62;;;;;;;1.40;83.79;99972.74;1741158;81;21671;-78
2021/01/09 09:07:05;;;;;;;55.33;27.45;;;;;;;1.48;83.08;99967.96;1731949;81;21294;-81
2021/01/09 09:09:41;;;;;;;49.33;24.80;;;;;;;1.53;83.01;99970.10;1751864;81;21132;-78
2021/01/09 09:12:10;;;;;;;53.15;27.05;;;;;;;1.56;82.63;99968.78;1754409;81;21118;-78
2021/01/09 09:14:38;;;;;;;51.10;26.87;;;;;;;1.58;82.92;99965.75;1765065;81;21727;-80
2021/01/09 09:17:06;;;;;;;48.20;24.52;;;;;;;1.53;81.87;99968.80;1757294;81;21176;-79
2021/01/09 09:19:36;;;;;;;48.73;25.08;;;;;;;1.55;82.13;99961.88;1741172;82;22255;-79
2021/01/09 09:22:03;;;;;;;49.40;23.87;;;;;;;1.54;82.22;99958.43;1745882;81;21234;-79
2021/01/09 09:24:41;;;;;;;48.15;23.98;;;;;;;1.55;82.66;99954.09;1746028;81;21302;-79
2021/01/09 09:27:24;;;;;;;49.77;24.52;;;;;;;1.57;82.59;99949.33;1736312;81;21215;-80
2021/01/09 09:30:11;;;;;;;51.45;26.90;;;;;;;1.63;81.87;99961.41;1723120;82;21219;-73
2021/01/09 09:32:43;;;;;;;44.00;23.73;;;;;;;1.68;81.79;99959.68;1687740;84;21635;-79
2021/01/09 09:35:27;;;;;;;49.08;26.02;;;;;;;1.71;81.15;99946.68;1744430;81;21633;-77
2021/01/09 09:37:59;;;;;;;47.20;24.47;;;;;;;1.74;80.68;99951.84;1750244;81;21178;-77
2021/01/09 09:40:34;;;;;;;54.15;26.37;;;;;;;1.73;80.22;99950.14;1742870;81;21126;-78
2021/01/09 09:43:16;;;;;;;46.05;22.22;;;;;;;1.74;80.37;99943.20;1753088;81;21123;-77
2021/01/09 09:46:03;;;;;;;39.55;20.77;;;;;;;1.78;80.18;99939.29;1710789;83;21506;-78
2021/01/09 09:48:35;;;;;;;41.55;22.00;;;;;;;1.77;79.32;99938.88;1685386;83;21099;-80
2021/01/09 09:51:08;;;;;;;42.78;23.00;;;;;;;1.75;77.96;99935.83;1717485;83;21417;-78
2021/01/09 09:53:38;;;;;;;42.65;22.40;;;;;;;1.70;78.81;99933.25;1705315;84;21184;-79
2021/01/09 09:56:23;;;;;;;42.15;20.80;;;;;;;1.73;78.40;99935.86;1707999;84;21178;-78
2021/01/09 09:59:02;;;;;;;36.23;19.67;;;;;;;1.79;78.53;99926.72;1707967;84;21424;-78
2021/01/09 10:01:31;;;;;;;33.80;18.65;;;;;;;1.82;78.41;99933.22;1686365;84;21629;-80
2021/01/09 10:06:40;;;;;;;43.13;22.87;;;;;;;1.89;77.85;99928.86;1877395;75;23404;-79
2021/01/09 10:09:18;;;;;;;37.55;19.20;;;;;;;1.82;77.38;99930.63;1789121;79;21140;-80
2021/01/09 10:11:48;;;;;;;41.92;20.95;;;;;;;1.82;77.71;99928.03;1803192;78;21883;-79
2021/01/09 10:14:18;;;;;;;40.17;20.80;;;;;;;1.83;76.67;99931.03;1793934;78;21166;-79
2021/01/09 10:16:45;;;;;;;39.35;19.57;;;;;;;1.82;77.35;99929.77;1793566;78;21134;-80
2021/01/09 10:19:15;;;;;;;42.10;22.40;;;;;;;1.82;76.83;99931.92;1778673;80;21167;-80
2021/01/09 10:21:43;;;;;;;38.08;20.97;;;;;;;1.82;76.97;99928.03;1790212;78;21167;-81
2021/01/09 10:24:11;;;;;;;36.75;19.35;;;;;;;1.81;76.43;99923.69;1789038;79;21377;-79
2021/01/09 10:26:39;;;;;;;41.18;21.75;;;;;;;1.78;76.44;99921.11;1741748;80;21151;-79
2021/01/09 10:29:12;;;;;;;39.45;21.25;;;;;;;1.74;76.16;99925.03;1768922;81;21240;-80
2021/01/09 10:31:40;;;;;;;39.92;20.68;;;;;;;1.72;76.33;99923.73;1785006;79;21642;-79
2021/01/09 10:34:08;;;;;;;34.60;16.62;;;;;;;1.72;76.59;99930.22;1792200;79;21167;-79
2021/01/09 10:36:38;;;;;;;32.15;17.55;;;;;;;1.76;78.00;99929.34;1747413;80;22376;-77
2021/01/09 10:39:07;;;;;;;27.98;15.88;;;;;;;1.76;76.20;99928.05;1736722;81;21176;-79
2021/01/09 10:41:35;;;;;;;36.80;18.20;;;;;;;1.74;76.86;99916.80;1742490;81;21192;-78
2021/01/09 10:44:05;;;;;;;40.48;21.95;;;;;;;1.77;77.19;99927.19;1754412;81;21218;-73
2021/01/09 10:46:36;;;;;;;36.77;19.77;;;;;;;1.83;77.54;99926.28;1752612;81;21162;-76
2021/01/09 10:49:03;;;;;;;35.60;18.02;;;;;;;1.86;76.88;99924.55;1729009;81;21356;-78
2021/01/09 10:51:31;;;;;;;35.80;18.50;;;;;;;1.87;75.26;99921.07;1751991;81;21229;-76
2021/01/09 10:54:01;;;;;;;38.45;20.27;;;;;;;1.82;75.51;99925.43;1729946;82;22060;-76
2021/01/09 10:56:29;;;;;;;32.78;17.10;;;;;;;1.78;74.92;99922.86;1734716;82;21196;-76
2021/01/09 10:58:58;;;;;;;36.03;19.27;;;;;;;1.73;74.50;99922.88;1786274;79;21160;-77
2021/01/09 11:01:26;;;;;;;32.80;17.57;;;;;;;1.73;75.02;99918.13;1782289;79;21635;-74
2021/01/09 11:03:54;;;;;;;37.53;18.25;;;;;;;1.75;75.54;99918.55;1786052;79;21537;-77
2021/01/09 11:06:22;;;;;;;35.85;18.12;;;;;;;1.77;75.62;99919.41;1792303;79;21174;-75
2021/01/09 11:08:50;;;;;;;38.75;19.07;;;;;;;1.80;75.75;99917.22;1747980;81;21737;-76
2021/01/09 11:11:20;;;;;;;33.83;18.30;;;;;;;1.82;75.67;99921.53;1727223;81;21147;-79
2021/01/09 11:13:48;;;;;;;33.70;17.30;;;;;;;1.84;76.23;99911.13;1753133;81;21397;-82
2021/01/09 11:16:23;;;;;;;30.50;15.75;;;;;;;1.84;75.95;99909.82;1753797;81;21170;-77
2021/01/09 11:18:51;;;;;;;34.80;17.95;;;;;;;1.83;76.72;99903.77;1759108;81;21201;-79
2021/01/09 11:21:20;;;;;;;33.18;18.25;;;;;;;1.87;76.86;99909.83;1734912;81;21217;-80
2021/01/09 11:23:48;;;;;;;36.90;20.23;;;;;;;1.87;74.87;99908.08;1747260;81;21214;-79
2021/01/09 11:26:23;;;;;;;35.78;18.37;;;;;;;1.85;75.41;99912.42;1736972;81;21425;-79
2021/01/09 11:28:52;;;;;;;31.90;17.62;;;;;;;1.87;75.13;99911.13;1750216;81;21252;-80
2021/01/09 11:31:21;;;;;;;34.63;18.75;;;;;;;1.91;74.87;99915.84;1751781;81;21104;-81
2021/01/09 11:33:48;;;;;;;34.70;18.90;;;;;;;1.93;75.24;99915.41;1753056;81;21167;-81
2021/01/09 11:36:17;;;;;;;35.43;18.00;;;;;;;1.94;74.06;99916.71;1737625;80;22946;-80
2021/01/09 11:38:46;;;;;;;36.83;19.32;;;;;;;1.96;74.23;99920.17;1730688;82;21889;-82
2021/01/09 11:41:16;;;;;;;38.13;18.52;;;;;;;1.95;73.84;99918.42;1725497;82;21190;-80
2021/01/09 11:43:44;;;;;;;35.23;18.30;;;;;;;1.97;74.01;99917.98;1734356;82;21136;-80
2021/01/09 11:46:12;;;;;;;36.70;17.65;;;;;;;2.01;73.37;99917.55;1715848;83;21177;-76
2021/01/09 11:48:41;;;;;;;34.13;19.15;;;;;;;2.02;73.74;99914.06;1726036;81;21128;-81
2021/01/09 11:51:09;;;;;;;36.65;19.30;;;;;;;2.03;73.43;99922.30;1726555;82;21386;-78
2021/01/09 11:53:38;;;;;;;35.90;18.65;;;;;;;2.04;73.03;99926.61;1778801;80;21171;-78
2021/01/09 11:56:05;;;;;;;41.83;21.35;;;;;;;2.03;73.00;99918.41;1788580;80;21161;-74
2021/01/09 11:58:36;;;;;;;39.25;20.55;;;;;;;2.05;72.15;99921.86;1778122;80;21162;-81
2021/01/09 12:01:04;;;;;;;;;;;;;;;2.17;74.12;99923.52;1787252;80;21614;-79
2021/01/09 12:03:32;;;;;;;44.58;21.55;;;;;;;2.17;70.05;99921.77;1777304;80;21277;-79
2021/01/09 12:06:03;;;;;;;40.45;21.57;;;;;;;2.13;69.84;99923.95;1788623;80;21155;-79
2021/01/09 12:08:31;;;;;;;38.70;20.17;;;;;;;2.16;68.35;99930.42;1785840;80;21175;-79
2021/01/09 12:11:00;;;;;;;36.48;19.55;;;;;;;2.15;67.70;99931.31;1785818;80;21178;-83
2021/01/09 12:13:28;;;;;;;36.60;19.15;;;;;;;2.23;66.44;99928.24;1768737;78;21138;-81
2021/01/09 12:15:56;;;;;;;36.75;19.42;;;;;;;2.54;65.63;99924.12;1759197;81;22301;-78
2021/01/09 12:18:24;;;;;;;36.63;19.23;;;;;;;3.13;66.10;99928.38;1759218;81;21189;-82
2021/01/09 12:20:51;;;;;;;34.20;17.70;;;;;;;3.49;63.23;99928.41;1775809;80;21636;-79
2021/01/09 12:23:19;;;;;;;33.48;18.90;;;;;;;3.68;61.83;99933.40;1790658;80;21593;-79
2021/01/09 12:25:47;;;;;;;31.33;15.85;;;;;;;3.58;62.20;99934.81;1790510;80;21149;-80
2021/01/09 12:28:16;;;;;;;35.17;18.80;;;;;;;3.37;61.80;99938.97;1791176;80;21205;-79